Search METAR Data

METAR Data for ENSK:

ENSK 241450Z 16009KT 9999 FEW032 BKN100 04/M03 Q1009